createdAt,value
2019-04-22T00:00:54.263Z,1009.94
2019-04-22T00:01:56.987Z,1009.86
2019-04-22T00:02:58.127Z,1009.89
2019-04-22T00:04:00.856Z,1009.91
2019-04-22T00:05:04.687Z,1009.91
2019-04-22T00:06:12.936Z,1009.89
2019-04-22T00:07:17.446Z,1009.89
2019-04-22T00:08:16.804Z,1009.86
2019-04-22T00:09:20.525Z,1009.86
2019-04-22T00:10:24.254Z,1009.85
2019-04-22T00:11:25.840Z,1009.91
2019-04-22T00:12:19.646Z,1009.91
2019-04-22T00:13:18.145Z,1009.88
2019-04-22T00:14:11.682Z,1009.86
2019-04-22T00:15:15.506Z,1009.85
2019-04-22T00:16:22.213Z,1009.83
2019-04-22T00:17:23.426Z,1009.81
2019-04-22T00:18:22.410Z,1009.81
2019-04-22T00:19:24.765Z,1009.81
2019-04-22T00:20:14.396Z,1009.80
2019-04-22T00:21:19.472Z,1009.85
2019-04-22T00:22:22.306Z,1009.82
2019-04-22T00:23:20.124Z,1009.82
2019-04-22T00:24:17.010Z,1009.80
2019-04-22T00:25:19.895Z,1009.83
2019-04-22T00:27:22.258Z,1009.74
2019-04-22T00:28:36.605Z,1009.80
2019-04-22T00:29:38.962Z,1009.81
2019-04-22T00:30:22.480Z,1009.81
2019-04-22T00:31:16.943Z,1009.77
2019-04-22T00:32:20.912Z,1009.80
2019-04-22T00:33:18.681Z,1009.76
2019-04-22T00:34:20.885Z,1009.79
2019-04-22T00:35:14.726Z,1009.72
2019-04-22T00:36:19.363Z,1009.74
2019-04-22T00:37:17.205Z,1009.67
2019-04-22T00:39:25.458Z,1009.67
2019-04-22T00:40:19.652Z,1009.65
2019-04-22T00:41:20.392Z,1009.61
2019-04-22T00:42:18.184Z,1009.66
2019-04-22T00:43:19.744Z,1009.65
2019-04-22T00:44:19.043Z,1009.63
2019-04-22T00:45:19.096Z,1009.65
2019-04-22T00:46:22.654Z,1009.63
2019-04-22T00:47:26.733Z,1009.62
2019-04-22T00:48:20.621Z,1009.58
2019-04-22T00:50:01.853Z,1009.50
2019-04-22T00:50:18.899Z,1009.51
2019-04-22T00:51:22.870Z,1009.50
2019-04-22T00:52:18.224Z,1009.52
2019-04-22T00:54:15.703Z,1009.46
2019-04-22T00:55:23.038Z,1009.48
2019-04-22T00:56:17.128Z,1009.45
2019-04-22T00:57:15.742Z,1009.44
2019-04-22T00:58:16.261Z,1009.50
2019-04-22T00:59:20.102Z,1009.40
2019-04-22T01:00:21.314Z,1009.41
2019-04-22T01:01:20.751Z,1009.47
2019-04-22T01:02:22.983Z,1009.45
2019-04-22T01:03:19.951Z,1009.44
2019-04-22T01:04:20.363Z,1009.46
2019-04-22T01:05:21.450Z,1009.40
2019-04-22T01:06:23.083Z,1009.37
2019-04-22T01:07:20.717Z,1009.43
2019-04-22T01:08:25.399Z,1009.40
2019-04-22T01:09:17.499Z,1009.35
2019-04-22T01:10:19.060Z,1009.36
2019-04-22T01:11:24.768Z,1009.36
2019-04-22T01:12:24.175Z,1009.34
2019-04-22T01:13:21.666Z,1009.36
2019-04-22T01:14:15.759Z,1009.34
2019-04-22T01:15:23.346Z,1009.35
2019-04-22T01:16:18.920Z,1009.33
2019-04-22T01:17:11.603Z,1009.35
2019-04-22T01:18:21.028Z,1009.34
2019-04-22T01:19:19.842Z,1009.33
2019-04-22T01:20:38.486Z,1009.27
2019-04-22T01:21:24.336Z,1009.24
2019-04-22T01:22:16.350Z,1009.28
2019-04-22T01:23:19.799Z,1009.26
2019-04-22T01:24:09.110Z,1009.30
2019-04-22T01:25:14.381Z,1009.27
2019-04-22T01:26:10.822Z,1009.28
2019-04-22T01:27:10.525Z,1009.22
2019-04-22T01:28:09.213Z,1009.26
2019-04-22T01:29:05.343Z,1009.25
2019-04-22T01:30:06.088Z,1009.20
2019-04-22T01:31:00.994Z,1009.26
2019-04-22T01:31:53.109Z,1009.24
2019-04-22T01:32:57.937Z,1009.20
2019-04-22T01:34:10.982Z,1009.14
2019-04-22T01:35:05.900Z,1009.19
2019-04-22T01:36:15.300Z,1009.20
2019-04-22T01:37:07.759Z,1009.15
2019-04-22T01:38:07.805Z,1009.13
2019-04-22T01:39:16.352Z,1009.15
2019-04-22T01:40:18.227Z,1009.13
2019-04-22T01:41:28.282Z,1009.14
2019-04-22T01:42:16.915Z,1009.07
2019-04-22T01:43:25.157Z,1009.14
2019-04-22T01:44:26.505Z,1009.10
2019-04-22T01:45:19.382Z,1009.09
2019-04-22T01:46:16.933Z,1009.11
2019-04-22T01:47:21.406Z,1009.09
2019-04-22T01:48:19.734Z,1009.13
2019-04-22T01:49:21.362Z,1009.12
2019-04-22T01:50:21.357Z,1009.10
2019-04-22T01:51:12.230Z,1009.09
2019-04-22T01:52:17.863Z,1009.08
2019-04-22T01:53:25.379Z,1009.10
2019-04-22T01:54:27.557Z,1009.10
2019-04-22T01:55:24.943Z,1009.06
2019-04-22T01:56:19.501Z,1009.05
2019-04-22T01:57:17.458Z,1009.03
2019-04-22T01:58:10.934Z,1008.99
2019-04-22T01:59:11.017Z,1009.03
2019-04-22T02:00:09.075Z,1009.03
2019-04-22T02:01:23.580Z,1009.03
2019-04-22T02:02:16.272Z,1009.04
2019-04-22T02:03:22.301Z,1008.99
2019-04-22T02:04:26.903Z,1009.02
2019-04-22T02:05:17.702Z,1009.04
2019-04-22T02:06:23.402Z,1008.98
2019-04-22T02:07:16.764Z,1009.01
2019-04-22T02:08:29.491Z,1008.97
2019-04-22T02:09:22.477Z,1008.97
2019-04-22T02:10:19.742Z,1008.97
2019-04-22T02:11:25.579Z,1008.93
2019-04-22T02:12:23.857Z,1008.90
2019-04-22T02:13:15.209Z,1008.94
2019-04-22T02:14:19.933Z,1008.91
2019-04-22T02:15:16.677Z,1008.97
2019-04-22T02:16:23.255Z,1008.90
2019-04-22T02:17:17.662Z,1008.90
2019-04-22T02:19:24.424Z,1008.92
2019-04-22T02:20:23.851Z,1008.84
2019-04-22T02:21:13.705Z,1008.92
2019-04-22T02:22:24.841Z,1008.86
2019-04-22T02:23:40.174Z,1008.87
2019-04-22T02:24:18.059Z,1008.89
2019-04-22T02:25:30.088Z,1008.89
2019-04-22T02:26:31.436Z,1008.84
2019-04-22T02:27:26.197Z,1008.83
2019-04-22T02:28:28.344Z,1008.90
2019-04-22T02:29:22.143Z,1008.87
2019-04-22T02:30:13.875Z,1008.83
2019-04-22T02:34:22.600Z,1008.83
2019-04-22T02:35:45.956Z,1008.79
2019-04-22T02:36:32.562Z,1008.76
2019-04-22T02:37:21.254Z,1008.83
2019-04-22T02:38:34.082Z,1008.82
2019-04-22T02:39:17.900Z,1008.85
2019-04-22T02:40:35.734Z,1008.84
2019-04-22T02:41:31.011Z,1008.78
2019-04-22T02:43:41.566Z,1008.79
2019-04-22T02:44:26.485Z,1008.80
2019-04-22T02:45:26.415Z,1008.79
2019-04-22T02:50:08.913Z,1008.73
2019-04-22T02:52:18.149Z,1008.73
2019-04-22T02:53:30.028Z,1008.66
2019-04-22T02:54:33.909Z,1008.74
2019-04-22T02:56:27.181Z,1008.69
2019-04-22T02:57:22.417Z,1008.62
2019-04-22T02:58:35.366Z,1008.67
2019-04-22T03:00:35.450Z,1008.64
2019-04-22T03:01:23.469Z,1008.60
2019-04-22T03:02:11.886Z,1008.57
2019-04-22T03:03:27.607Z,1008.60
2019-04-22T03:05:24.114Z,1008.62
2019-04-22T03:07:09.049Z,1008.54
2019-04-22T03:08:15.115Z,1008.47
2019-04-22T03:10:43.912Z,1008.45
2019-04-22T03:12:16.426Z,1008.45
2019-04-22T03:13:21.700Z,1008.46
2019-04-22T03:15:07.842Z,1008.41
2019-04-22T03:17:16.243Z,1008.43
2019-04-22T03:18:27.312Z,1008.39
2019-04-22T03:20:08.984Z,1008.26
2019-04-22T03:21:16.002Z,1008.30
2019-04-22T03:25:43.783Z,1008.23
2019-04-22T03:26:23.314Z,1008.27
2019-04-22T03:27:19.120Z,1008.18
2019-04-22T03:28:12.081Z,1008.20
2019-04-22T03:29:28.742Z,1008.22
2019-04-22T03:30:41.653Z,1008.24
2019-04-22T03:31:18.852Z,1008.19
2019-04-22T03:32:40.542Z,1008.17
2019-04-22T03:36:45.230Z,1008.14
2019-04-22T03:37:20.640Z,1008.19
2019-04-22T03:38:12.465Z,1008.15
2019-04-22T03:39:28.249Z,1008.15
2019-04-22T03:40:22.342Z,1008.11
2019-04-22T03:42:09.994Z,1008.15
2019-04-22T03:43:14.186Z,1008.09
2019-04-22T03:44:23.570Z,1008.06
2019-04-22T03:46:14.772Z,1008.05
2019-04-22T03:47:21.685Z,1008.05
2019-04-22T03:48:09.314Z,1008.02
2019-04-22T03:51:33.929Z,1008.01
2019-04-22T03:52:25.047Z,1008.03
2019-04-22T03:53:14.857Z,1008.01
2019-04-22T03:54:29.764Z,1007.98
2019-04-22T03:56:47.513Z,1007.96
2019-04-22T03:57:40.574Z,1007.93
2019-04-22T03:58:28.857Z,1007.97
2019-04-22T03:59:26.972Z,1007.96
2019-04-22T04:00:22.040Z,1007.96
2019-04-22T04:01:18.419Z,1007.89
2019-04-22T04:02:21.624Z,1007.94
2019-04-22T04:05:22.235Z,1007.91
2019-04-22T04:09:19.426Z,1007.95
2019-04-22T04:11:06.996Z,1007.92
2019-04-22T04:13:23.259Z,1007.95
2019-04-22T04:14:22.929Z,1007.89
2019-04-22T04:16:12.545Z,1007.93
2019-04-22T04:17:26.083Z,1007.93
2019-04-22T04:18:09.181Z,1007.89
2019-04-22T04:19:38.748Z,1007.91
2019-04-22T04:20:24.296Z,1007.90
2019-04-22T04:22:21.431Z,1007.86
2019-04-22T04:23:21.962Z,1007.86
2019-04-22T04:25:29.438Z,1007.81
2019-04-22T04:26:23.536Z,1007.87
2019-04-22T04:31:25.508Z,1007.82
2019-04-22T04:32:26.996Z,1007.82
2019-04-22T04:33:18.123Z,1007.84
2019-04-22T04:34:28.676Z,1007.78
2019-04-22T04:36:09.235Z,1007.79
2019-04-22T04:37:38.918Z,1007.82
2019-04-22T04:38:00.763Z,1007.82
2019-04-22T04:40:21.458Z,1007.82
2019-04-22T04:41:17.289Z,1007.83
2019-04-22T04:42:25.938Z,1007.81
2019-04-22T04:45:31.978Z,1007.81
2019-04-22T04:48:13.420Z,1007.82
2019-04-22T04:49:19.385Z,1007.81
2019-04-22T04:50:16.020Z,1007.82
2019-04-22T04:51:28.682Z,1007.79
2019-04-22T04:52:39.068Z,1007.78
2019-04-22T04:54:21.474Z,1007.77
2019-04-22T04:55:22.119Z,1007.79
2019-04-22T04:57:17.329Z,1007.78
2019-04-22T04:58:25.038Z,1007.77
2019-04-22T04:59:42.042Z,1007.79
2019-04-22T05:01:28.926Z,1007.75
2019-04-22T05:05:28.955Z,1007.74
2019-04-22T05:06:12.927Z,1007.71
2019-04-22T05:08:19.311Z,1007.72
2019-04-22T05:11:16.365Z,1007.78
2019-04-22T05:14:09.309Z,1007.73
2019-04-22T05:15:57.670Z,1007.73
2019-04-22T05:16:24.464Z,1007.75
2019-04-22T05:17:16.444Z,1007.76
2019-04-22T05:18:14.868Z,1007.77
2019-04-22T05:20:21.522Z,1007.73
2019-04-22T05:21:21.879Z,1007.77
2019-04-22T05:22:16.401Z,1007.79
2019-04-22T05:23:06.539Z,1007.77
2019-04-22T05:25:15.199Z,1007.70
2019-04-22T05:26:11.038Z,1007.74
2019-04-22T05:27:16.397Z,1007.76
2019-04-22T05:28:08.804Z,1007.69
2019-04-22T05:29:09.665Z,1007.68
2019-04-22T05:31:10.006Z,1007.59
2019-04-22T05:32:09.159Z,1007.66
2019-04-22T05:33:07.313Z,1007.57
2019-04-22T05:34:09.539Z,1007.58
2019-04-22T05:35:06.763Z,1007.58
2019-04-22T05:36:07.530Z,1007.54
2019-04-22T05:37:07.127Z,1007.53
2019-04-22T05:38:09.939Z,1007.52
2019-04-22T05:39:06.480Z,1007.55
2019-04-22T05:40:19.321Z,1007.53
2019-04-22T05:41:08.852Z,1007.47
2019-04-22T05:42:11.494Z,1007.55
2019-04-22T05:43:09.547Z,1007.57
2019-04-22T05:44:08.373Z,1007.53
2019-04-22T05:45:10.155Z,1007.50
2019-04-22T05:46:03.001Z,1007.53
2019-04-22T05:47:11.036Z,1007.46
2019-04-22T05:48:01.311Z,1007.47
2019-04-22T05:49:07.083Z,1007.52
2019-04-22T05:49:54.575Z,1007.54
2019-04-22T05:51:14.750Z,1007.51
2019-04-22T05:52:08.015Z,1007.50
2019-04-22T05:53:00.418Z,1007.52
2019-04-22T05:54:12.926Z,1007.49
2019-04-22T05:55:08.265Z,1007.49
2019-04-22T05:56:17.120Z,1007.54
2019-04-22T05:57:11.258Z,1007.53
2019-04-22T05:59:12.519Z,1007.54
2019-04-22T06:00:06.580Z,1007.52
2019-04-22T06:01:36.545Z,1007.53
2019-04-22T06:02:17.134Z,1007.55
2019-04-22T06:03:02.622Z,1007.58
2019-04-22T06:04:27.452Z,1007.56
2019-04-22T06:05:13.909Z,1007.48
2019-04-22T06:06:12.690Z,1007.55
2019-04-22T06:08:04.077Z,1007.48
2019-04-22T06:09:07.447Z,1007.53
2019-04-22T06:10:11.658Z,1007.56
2019-04-22T06:11:09.665Z,1007.52
2019-04-22T06:12:01.773Z,1007.54
2019-04-22T06:13:00.933Z,1007.52
2019-04-22T06:14:01.979Z,1007.54
2019-04-22T06:15:10.130Z,1007.50
2019-04-22T06:16:12.746Z,1007.51
2019-04-22T06:17:03.943Z,1007.53
2019-04-22T06:18:16.106Z,1007.53
2019-04-22T06:19:07.599Z,1007.56
2019-04-22T06:20:05.671Z,1007.54
2019-04-22T06:21:11.293Z,1007.54
2019-04-22T06:22:06.494Z,1007.55
2019-04-22T06:23:12.129Z,1007.55
2019-04-22T06:24:10.581Z,1007.56
2019-04-22T06:25:16.999Z,1007.55
2019-04-22T06:27:14.737Z,1007.52
2019-04-22T06:28:15.985Z,1007.49
2019-04-22T06:29:11.409Z,1007.55
2019-04-22T06:30:04.336Z,1007.55
2019-04-22T06:31:10.661Z,1007.55
2019-04-22T06:33:13.214Z,1007.53
2019-04-22T06:34:13.431Z,1007.51
2019-04-22T06:35:15.363Z,1007.52
2019-04-22T06:38:30.462Z,1007.51
2019-04-22T06:39:10.476Z,1007.52
2019-04-22T06:40:10.521Z,1007.54
2019-04-22T06:41:09.089Z,1007.49
2019-04-22T06:42:11.506Z,1007.52
2019-04-22T06:43:10.323Z,1007.49
2019-04-22T06:44:10.859Z,1007.55
2019-04-22T06:45:15.155Z,1007.54
2019-04-22T06:46:08.396Z,1007.51
2019-04-22T06:47:05.315Z,1007.52
2019-04-22T06:48:08.392Z,1007.45
2019-04-22T06:49:12.817Z,1007.47
2019-04-22T06:50:07.768Z,1007.38
2019-04-22T06:51:09.512Z,1007.47
2019-04-22T06:52:05.193Z,1007.45
2019-04-22T06:53:03.022Z,1007.48
2019-04-22T06:54:07.584Z,1007.49
2019-04-22T06:55:11.008Z,1007.43
2019-04-22T06:56:04.906Z,1007.45
2019-04-22T06:57:06.096Z,1007.47
2019-04-22T06:58:07.646Z,1007.45
2019-04-22T06:59:09.366Z,1007.45
2019-04-22T07:00:05.246Z,1007.44
2019-04-22T07:01:09.521Z,1007.38
2019-04-22T07:02:11.734Z,1007.40
2019-04-22T07:04:03.081Z,1007.40
2019-04-22T07:05:08.301Z,1007.40
2019-04-22T07:06:08.063Z,1007.43
2019-04-22T07:07:06.678Z,1007.46
2019-04-22T07:08:25.051Z,1007.39
2019-04-22T07:09:20.541Z,1007.38
2019-04-22T07:10:18.113Z,1007.35
2019-04-22T07:11:01.701Z,1007.33
2019-04-22T07:12:08.504Z,1007.34
2019-04-22T07:13:01.484Z,1007.32
2019-04-22T07:15:16.924Z,1007.37
2019-04-22T07:16:03.954Z,1007.36
2019-04-22T07:17:05.173Z,1007.40
2019-04-22T07:18:11.499Z,1007.39
2019-04-22T07:19:20.290Z,1007.39
2019-04-22T07:20:08.301Z,1007.35
2019-04-22T07:21:06.361Z,1007.37
2019-04-22T07:22:03.397Z,1007.39
2019-04-22T07:23:07.945Z,1007.41
2019-04-22T07:24:22.796Z,1007.32
2019-04-22T07:25:03.111Z,1007.39
2019-04-22T07:26:07.556Z,1007.38
2019-04-22T07:27:08.445Z,1007.37
2019-04-22T07:28:08.310Z,1007.38
2019-04-22T07:29:06.140Z,1007.35
2019-04-22T07:30:09.306Z,1007.31
2019-04-22T07:31:03.903Z,1007.33
2019-04-22T07:32:25.076Z,1007.28
2019-04-22T07:34:09.476Z,1007.26
2019-04-22T07:35:08.405Z,1007.28
2019-04-22T07:36:29.650Z,1007.23
2019-04-22T07:37:23.095Z,1007.25
2019-04-22T07:38:12.497Z,1007.26
2019-04-22T07:39:04.471Z,1007.26
2019-04-22T07:40:11.938Z,1007.28
2019-04-22T07:41:02.586Z,1007.23
2019-04-22T07:42:10.721Z,1007.25
2019-04-22T07:43:09.058Z,1007.24
2019-04-22T07:44:13.378Z,1007.22
2019-04-22T07:45:06.667Z,1007.18
2019-04-22T07:46:05.186Z,1007.21
2019-04-22T07:47:16.943Z,1007.20
2019-04-22T07:48:11.259Z,1007.21
2019-04-22T07:49:06.653Z,1007.17
2019-04-22T07:50:10.979Z,1007.14
2019-04-22T07:52:04.817Z,1007.18
2019-04-22T07:53:08.364Z,1007.21
2019-04-22T07:53:56.303Z,1007.19
2019-04-22T07:55:04.317Z,1007.15
2019-04-22T07:56:05.247Z,1007.18
2019-04-22T07:57:11.686Z,1007.16
2019-04-22T07:58:04.977Z,1007.11
2019-04-22T07:59:05.725Z,1007.12
2019-04-22T08:00:10.650Z,1007.10
2019-04-22T08:01:08.808Z,1007.04
2019-04-22T08:02:03.975Z,1007.04
2019-04-22T08:03:08.827Z,1007.03
2019-04-22T08:05:22.299Z,1007.01
2019-04-22T08:07:05.159Z,1007.04
2019-04-22T08:08:09.118Z,1007.02
2019-04-22T08:09:07.869Z,1006.98
2019-04-22T08:10:14.340Z,1006.95
2019-04-22T08:11:10.366Z,1006.95
2019-04-22T08:11:57.855Z,1006.94
2019-04-22T08:13:05.699Z,1006.93
2019-04-22T08:15:06.076Z,1006.87
2019-04-22T08:16:06.344Z,1006.92
2019-04-22T08:17:07.306Z,1006.88
2019-04-22T08:18:01.505Z,1006.83
2019-04-22T08:19:10.532Z,1006.82
2019-04-22T08:20:10.804Z,1006.87
2019-04-22T08:21:07.552Z,1006.88
2019-04-22T08:22:01.455Z,1006.88
2019-04-22T08:23:23.874Z,1006.83
2019-04-22T08:24:06.373Z,1006.83
2019-04-22T08:25:07.685Z,1006.82
2019-04-22T08:26:01.009Z,1006.81
2019-04-22T08:27:04.494Z,1006.81
2019-04-22T08:27:57.110Z,1006.81
2019-04-22T08:29:11.545Z,1006.78
2019-04-22T08:30:20.435Z,1006.79
2019-04-22T08:31:10.381Z,1006.81
2019-04-22T08:32:11.135Z,1006.78
2019-04-22T08:33:09.656Z,1006.76
2019-04-22T08:34:08.213Z,1006.75
2019-04-22T08:35:11.175Z,1006.79
2019-04-22T08:36:15.145Z,1006.74
2019-04-22T08:37:35.658Z,1006.71
2019-04-22T08:38:10.015Z,1006.73
2019-04-22T08:39:07.884Z,1006.72
2019-04-22T08:40:03.591Z,1006.76
2019-04-22T08:41:06.867Z,1006.74
2019-04-22T08:41:57.401Z,1006.74
2019-04-22T08:44:26.100Z,1006.69
2019-04-22T08:45:09.629Z,1006.71
2019-04-22T08:46:09.132Z,1006.68
2019-04-22T08:47:11.158Z,1006.63
2019-04-22T08:48:01.637Z,1006.64
2019-04-22T08:49:10.198Z,1006.56
2019-04-22T08:50:08.797Z,1006.61
2019-04-22T08:51:00.386Z,1006.53
2019-04-22T08:53:11.019Z,1006.46
2019-04-22T08:55:06.887Z,1006.47
2019-04-22T08:56:16.142Z,1006.55
2019-04-22T08:57:04.234Z,1006.48
2019-04-22T08:59:10.998Z,1006.46
2019-04-22T09:00:02.772Z,1006.45
2019-04-22T09:01:04.612Z,1006.46
2019-04-22T09:02:10.159Z,1006.46
2019-04-22T09:03:08.960Z,1006.45
2019-04-22T09:04:02.583Z,1006.41
2019-04-22T09:05:00.158Z,1006.41
2019-04-22T09:06:06.441Z,1006.39
2019-04-22T09:07:14.138Z,1006.37
2019-04-22T09:08:15.922Z,1006.40
2019-04-22T09:09:06.137Z,1006.34
2019-04-22T09:10:06.344Z,1006.33
2019-04-22T09:11:09.158Z,1006.26
2019-04-22T09:14:24.645Z,1006.29
2019-04-22T09:14:57.788Z,1006.27
2019-04-22T09:16:02.236Z,1006.25
2019-04-22T09:17:05.975Z,1006.21
2019-04-22T09:18:08.415Z,1006.22
2019-04-22T09:19:10.650Z,1006.17
2019-04-22T09:20:11.283Z,1006.15
2019-04-22T09:21:15.308Z,1006.11
2019-04-22T09:22:04.942Z,1006.13
2019-04-22T09:23:07.654Z,1006.10
2019-04-22T09:24:08.363Z,1006.13
2019-04-22T09:25:00.212Z,1006.14
2019-04-22T09:26:01.354Z,1006.13
2019-04-22T09:27:03.953Z,1006.12
2019-04-22T09:28:01.837Z,1006.11
2019-04-22T09:29:06.487Z,1006.07
2019-04-22T09:30:09.190Z,1006.04
2019-04-22T09:31:06.853Z,1005.98
2019-04-22T09:32:05.532Z,1005.96
2019-04-22T09:33:07.845Z,1006.00
2019-04-22T09:33:59.084Z,1006.00
2019-04-22T09:35:02.735Z,1005.96
2019-04-22T09:36:09.375Z,1006.00
2019-04-22T09:37:18.060Z,1005.88
2019-04-22T09:38:23.381Z,1005.91
2019-04-22T09:40:36.251Z,1005.92
2019-04-22T09:41:18.956Z,1005.89
2019-04-22T09:42:17.341Z,1005.85
2019-04-22T09:43:25.863Z,1005.83
2019-04-22T09:44:15.934Z,1005.87
2019-04-22T09:45:46.340Z,1005.81
2019-04-22T09:46:23.058Z,1005.80
2019-04-22T09:47:29.667Z,1005.77
2019-04-22T09:48:23.732Z,1005.72
2019-04-22T09:49:28.496Z,1005.68
2019-04-22T09:50:24.059Z,1005.66
2019-04-22T09:51:18.715Z,1005.65
2019-04-22T09:52:18.769Z,1005.62
2019-04-22T09:53:22.231Z,1005.56
2019-04-22T09:54:26.548Z,1005.58
2019-04-22T09:55:17.701Z,1005.56
2019-04-22T09:56:17.626Z,1005.47
2019-04-22T09:58:20.762Z,1005.46
2019-04-22T09:59:20.481Z,1005.47
2019-04-22T10:00:37.380Z,1005.35
2019-04-22T10:01:24.290Z,1005.45
2019-04-22T10:03:20.426Z,1005.39
2019-04-22T10:04:10.070Z,1005.33
2019-04-22T10:05:20.923Z,1005.35
2019-04-22T10:07:21.026Z,1005.33
2019-04-22T10:08:24.439Z,1005.35
2019-04-22T10:09:33.065Z,1005.36
2019-04-22T10:11:25.127Z,1005.33
2019-04-22T10:12:29.976Z,1005.27
2019-04-22T10:13:23.897Z,1005.27
2019-04-22T10:14:18.938Z,1005.21
2019-04-22T10:15:13.844Z,1005.17
2019-04-22T10:16:26.223Z,1005.18
2019-04-22T10:17:17.781Z,1005.18
2019-04-22T10:18:19.659Z,1005.22
2019-04-22T10:19:16.727Z,1005.20
2019-04-22T10:20:24.399Z,1005.16
2019-04-22T10:21:31.509Z,1005.17
2019-04-22T10:23:19.029Z,1005.08
2019-04-22T10:24:19.210Z,1005.09
2019-04-22T10:25:18.213Z,1005.13
2019-04-22T10:26:21.860Z,1005.11
2019-04-22T10:27:12.949Z,1005.04
2019-04-22T10:28:29.610Z,1005.01
2019-04-22T10:29:17.636Z,1005.01
2019-04-22T10:30:29.485Z,1004.97
2019-04-22T10:31:23.840Z,1004.99
2019-04-22T10:32:19.050Z,1004.92
2019-04-22T10:33:14.895Z,1004.94
2019-04-22T10:34:10.617Z,1004.93
2019-04-22T10:35:01.948Z,1004.88
2019-04-22T10:35:53.154Z,1004.87
2019-04-22T10:36:57.517Z,1004.81
2019-04-22T10:37:54.312Z,1004.85
2019-04-22T10:38:52.496Z,1004.84
2019-04-22T10:39:57.537Z,1004.79
2019-04-22T10:40:54.465Z,1004.76
2019-04-22T10:41:52.747Z,1004.68
2019-04-22T10:42:53.452Z,1004.70
2019-04-22T10:43:52.924Z,1004.73
2019-04-22T10:44:53.776Z,1004.71
2019-04-22T10:45:52.308Z,1004.73
2019-04-22T10:46:52.032Z,1004.63
2019-04-22T10:47:52.291Z,1004.69
2019-04-22T10:48:52.781Z,1004.63
2019-04-22T10:49:52.287Z,1004.65
2019-04-22T10:50:52.668Z,1004.67
2019-04-22T10:51:52.865Z,1004.66
2019-04-22T10:52:53.101Z,1004.62
2019-04-22T10:53:53.331Z,1004.61
2019-04-22T10:54:51.953Z,1004.59
2019-04-22T10:55:52.002Z,1004.57
2019-04-22T10:56:52.795Z,1004.54
2019-04-22T10:57:52.682Z,1004.53
2019-04-22T10:58:52.934Z,1004.45
2019-04-22T10:59:52.315Z,1004.42
2019-04-22T11:00:52.845Z,1004.48
2019-04-22T11:01:52.713Z,1004.37
2019-04-22T11:02:51.873Z,1004.40
2019-04-22T11:03:53.130Z,1004.38
2019-04-22T11:04:52.397Z,1004.33
2019-04-22T11:05:53.912Z,1004.38
2019-04-22T11:06:56.400Z,1004.39
2019-04-22T11:07:59.023Z,1004.33
2019-04-22T11:08:58.368Z,1004.30
2019-04-22T11:10:01.103Z,1004.34
2019-04-22T11:11:07.162Z,1004.28
2019-04-22T11:12:01.740Z,1004.23
2019-04-22T11:12:52.804Z,1004.29
2019-04-22T11:13:51.973Z,1004.19
2019-04-22T11:14:51.862Z,1004.17
2019-04-22T11:15:52.967Z,1004.15
2019-04-22T11:16:53.171Z,1004.10
2019-04-22T11:17:51.696Z,1004.15
2019-04-22T11:18:51.793Z,1004.16
2019-04-22T11:19:51.689Z,1004.18
2019-04-22T11:20:51.653Z,1004.09
2019-04-22T11:22:03.813Z,1004.08
2019-04-22T11:22:53.048Z,1004.09
2019-04-22T11:23:52.509Z,1004.12
2019-04-22T11:24:52.901Z,1004.06
2019-04-22T11:25:51.964Z,1004.06
2019-04-22T11:26:52.738Z,1004.00
2019-04-22T11:27:51.602Z,1003.97
2019-04-22T11:28:51.807Z,1003.93
2019-04-22T11:29:52.920Z,1003.97
2019-04-22T11:30:52.330Z,1003.95
2019-04-22T11:31:52.528Z,1003.92
2019-04-22T11:32:51.520Z,1004.03
2019-04-22T11:33:52.502Z,1004.00
2019-04-22T11:34:51.565Z,1003.95
2019-04-22T11:35:52.106Z,1003.95
2019-04-22T11:36:52.679Z,1003.99
2019-04-22T11:37:52.738Z,1004.01
2019-04-22T11:38:56.471Z,1003.95
2019-04-22T11:40:02.113Z,1003.95
2019-04-22T11:40:55.534Z,1003.92
2019-04-22T11:41:51.906Z,1003.87
2019-04-22T11:42:52.202Z,1003.87
2019-04-22T11:43:51.444Z,1003.84
2019-04-22T11:44:51.431Z,1003.88
2019-04-22T11:45:51.374Z,1003.81
2019-04-22T11:46:51.735Z,1003.87
2019-04-22T11:47:51.352Z,1003.76
2019-04-22T11:48:51.887Z,1003.75
2019-04-22T11:49:52.247Z,1003.80
2019-04-22T11:50:51.663Z,1003.75
2019-04-22T11:51:51.806Z,1003.69
2019-04-22T11:52:51.298Z,1003.65
2019-04-22T11:53:52.601Z,1003.68
2019-04-22T11:54:52.738Z,1003.67
2019-04-22T11:55:51.266Z,1003.72
2019-04-22T11:56:52.638Z,1003.68
2019-04-22T11:57:51.971Z,1003.59
2019-04-22T11:58:51.247Z,1003.66
2019-04-22T11:59:51.267Z,1003.60
2019-04-22T12:00:51.969Z,1003.65
2019-04-22T12:01:51.198Z,1003.65
2019-04-22T12:02:51.241Z,1003.47
2019-04-22T12:03:51.814Z,1003.42
2019-04-22T12:04:51.954Z,1003.47
2019-04-22T12:05:52.210Z,1003.46
2019-04-22T12:06:51.747Z,1003.46
2019-04-22T12:07:51.131Z,1003.46
2019-04-22T12:08:51.931Z,1003.45
2019-04-22T12:09:51.420Z,1003.44
2019-04-22T12:10:55.385Z,1003.46
2019-04-22T12:11:53.785Z,1003.41
2019-04-22T12:12:51.956Z,1003.37
2019-04-22T12:13:51.834Z,1003.42
2019-04-22T12:14:52.312Z,1003.38
2019-04-22T12:15:51.230Z,1003.40
2019-04-22T12:16:51.033Z,1003.38
2019-04-22T12:17:51.052Z,1003.33
2019-04-22T12:18:51.278Z,1003.30
2019-04-22T12:19:52.376Z,1003.32
2019-04-22T12:20:51.050Z,1003.24
2019-04-22T12:21:51.268Z,1003.25
2019-04-22T12:22:51.368Z,1003.21
2019-04-22T12:23:51.021Z,1003.23
2019-04-22T12:24:52.369Z,1003.31
2019-04-22T12:25:58.027Z,1003.19
2019-04-22T12:26:52.751Z,1003.20
2019-04-22T12:27:50.962Z,1003.19
2019-04-22T12:28:51.117Z,1003.17
2019-04-22T12:29:51.277Z,1003.18
2019-04-22T12:30:51.247Z,1003.14
2019-04-22T12:31:51.425Z,1003.11
2019-04-22T12:32:50.866Z,1003.01
2019-04-22T12:33:50.853Z,1003.04
2019-04-22T12:34:51.280Z,1003.13
2019-04-22T12:35:50.851Z,1002.97
2019-04-22T12:36:51.139Z,1003.01
2019-04-22T12:37:55.560Z,1003.03
2019-04-22T12:38:51.807Z,1002.98
2019-04-22T12:39:53.079Z,1002.97
2019-04-22T12:40:58.502Z,1002.90
2019-04-22T12:41:52.186Z,1002.88
2019-04-22T12:42:51.392Z,1002.96
2019-04-22T12:43:51.497Z,1002.96
2019-04-22T12:44:51.167Z,1002.89
2019-04-22T12:45:51.990Z,1002.88
2019-04-22T12:46:52.182Z,1002.84
2019-04-22T12:47:50.704Z,1002.93
2019-04-22T12:48:52.092Z,1002.88
2019-04-22T12:49:57.206Z,1002.85
2019-04-22T12:50:54.226Z,1002.84
2019-04-22T12:51:51.373Z,1002.82
2019-04-22T12:52:57.263Z,1002.82
2019-04-22T12:53:52.870Z,1002.81
2019-04-22T12:54:51.045Z,1002.73
2019-04-22T12:55:53.697Z,1002.76
2019-04-22T12:56:51.441Z,1002.76
2019-04-22T12:57:53.496Z,1002.73
2019-04-22T12:58:51.766Z,1002.65
2019-04-22T12:59:50.580Z,1002.66
2019-04-22T13:00:51.409Z,1002.67
2019-04-22T13:01:51.161Z,1002.67
2019-04-22T13:02:51.397Z,1002.63
2019-04-22T13:03:51.949Z,1002.59
2019-04-22T13:04:52.026Z,1002.59
2019-04-22T13:05:51.498Z,1002.57
2019-04-22T13:06:50.504Z,1002.53
2019-04-22T13:07:51.651Z,1002.54
2019-04-22T13:08:50.515Z,1002.48
2019-04-22T13:09:51.550Z,1002.48
2019-04-22T13:10:58.709Z,1002.51
2019-04-22T13:11:52.854Z,1002.49
2019-04-22T13:12:50.972Z,1002.43
2019-04-22T13:13:51.201Z,1002.47
2019-04-22T13:14:50.729Z,1002.51
2019-04-22T13:15:51.038Z,1002.42
2019-04-22T13:16:51.213Z,1002.40
2019-04-22T13:18:04.454Z,1002.35
2019-04-22T13:18:56.493Z,1002.33
2019-04-22T13:19:51.891Z,1002.34
2019-04-22T13:20:50.689Z,1002.39
2019-04-22T13:21:50.966Z,1002.34
2019-04-22T13:22:50.639Z,1002.33
2019-04-22T13:23:50.804Z,1002.27
2019-04-22T13:24:50.378Z,1002.33
2019-04-22T13:25:50.324Z,1002.27
2019-04-22T13:26:50.723Z,1002.31
2019-04-22T13:27:51.156Z,1002.24
2019-04-22T13:28:51.473Z,1002.24
2019-04-22T13:29:51.022Z,1002.14
2019-04-22T13:30:50.517Z,1002.21
2019-04-22T13:31:50.853Z,1002.19
2019-04-22T13:32:50.229Z,1002.16
2019-04-22T13:33:54.860Z,1002.20
2019-04-22T13:34:55.417Z,1002.19
2019-04-22T13:35:52.148Z,1002.14
2019-04-22T13:36:50.437Z,1002.20
2019-04-22T13:37:50.976Z,1002.13